sensor_id;sensor_type;location;lat;lon;timestamp;temperature;humidity
17893;DHT22;9072;51.918;4.380;2023-08-12T00:00:09;21.10;99.90
17893;DHT22;9072;51.918;4.380;2023-08-12T00:03:00;21.10;99.90
17893;DHT22;9072;51.918;4.380;2023-08-12T00:05:29;21.10;99.90
17893;DHT22;9072;51.918;4.380;2023-08-12T00:08:15;21.00;99.90
17893;DHT22;9072;51.918;4.380;2023-08-12T00:10:59;21.00;99.90
17893;DHT22;9072;51.918;4.380;2023-08-12T00:13:29;21.00;99.90
17893;DHT22;9072;51.918;4.380;2023-08-12T00:16:09;21.00;99.90
17893;DHT22;9072;51.918;4.380;2023-08-12T00:18:49;21.00;99.90
17893;DHT22;9072;51.918;4.380;2023-08-12T00:21:27;21.00;99.90
17893;DHT22;9072;51.918;4.380;2023-08-12T00:24:01;21.00;99.90
17893;DHT22;9072;51.918;4.380;2023-08-12T00:26:32;21.00;99.90
17893;DHT22;9072;51.918;4.380;2023-08-12T00:29:06;21.00;99.90
17893;DHT22;9072;51.918;4.380;2023-08-12T00:31:35;21.00;99.90
17893;DHT22;9072;51.918;4.380;2023-08-12T00:34:11;21.00;99.90
17893;DHT22;9072;51.918;4.380;2023-08-12T00:36:47;21.00;99.90
17893;DHT22;9072;51.918;4.380;2023-08-12T00:39:23;21.00;99.90
17893;DHT22;9072;51.918;4.380;2023-08-12T00:41:52;21.00;99.90
17893;DHT22;9072;51.918;4.380;2023-08-12T00:44:22;21.00;99.90
17893;DHT22;9072;51.918;4.380;2023-08-12T00:46:55;21.00;99.90
17893;DHT22;9072;51.918;4.380;2023-08-12T00:49:52;21.00;99.90
17893;DHT22;9072;51.918;4.380;2023-08-12T00:52:26;21.00;99.90
17893;DHT22;9072;51.918;4.380;2023-08-12T00:54:56;21.00;99.90
17893;DHT22;9072;51.918;4.380;2023-08-12T00:57:46;21.00;99.90
17893;DHT22;9072;51.918;4.380;2023-08-12T01:00:28;21.00;99.90
17893;DHT22;9072;51.918;4.380;2023-08-12T01:02:58;21.00;99.90
17893;DHT22;9072;51.918;4.380;2023-08-12T01:05:46;21.00;99.90
17893;DHT22;9072;51.918;4.380;2023-08-12T01:08:19;21.00;99.90
17893;DHT22;9072;51.918;4.380;2023-08-12T01:11:05;21.00;99.90
17893;DHT22;9072;51.918;4.380;2023-08-12T01:13:52;21.00;99.90
17893;DHT22;9072;51.918;4.380;2023-08-12T01:16:30;21.00;99.90
17893;DHT22;9072;51.918;4.380;2023-08-12T01:19:03;21.00;99.90
17893;DHT22;9072;51.918;4.380;2023-08-12T01:21:38;21.00;99.90
17893;DHT22;9072;51.918;4.380;2023-08-12T01:24:17;20.90;99.90
17893;DHT22;9072;51.918;4.380;2023-08-12T01:27:02;21.00;99.90
17893;DHT22;9072;51.918;4.380;2023-08-12T01:30:08;21.00;99.90
17893;DHT22;9072;51.918;4.380;2023-08-12T01:32:43;21.00;99.90
17893;DHT22;9072;51.918;4.380;2023-08-12T01:35:21;21.00;99.90
17893;DHT22;9072;51.918;4.380;2023-08-12T01:37:58;21.00;99.90
17893;DHT22;9072;51.918;4.380;2023-08-12T01:40:31;21.00;99.90
17893;DHT22;9072;51.918;4.380;2023-08-12T01:43:30;21.00;99.90
17893;DHT22;9072;51.918;4.380;2023-08-12T01:46:27;21.00;99.90
17893;DHT22;9072;51.918;4.380;2023-08-12T01:49:09;20.90;99.90
17893;DHT22;9072;51.918;4.380;2023-08-12T01:52:11;21.00;99.90
17893;DHT22;9072;51.918;4.380;2023-08-12T01:54:57;21.00;99.90
17893;DHT22;9072;51.918;4.380;2023-08-12T01:57:56;20.90;99.90
17893;DHT22;9072;51.918;4.380;2023-08-12T02:00:28;21.00;99.90
17893;DHT22;9072;51.918;4.380;2023-08-12T02:03:04;21.00;99.90
17893;DHT22;9072;51.918;4.380;2023-08-12T02:05:38;20.90;99.90
17893;DHT22;9072;51.918;4.380;2023-08-12T02:08:12;20.90;99.90
17893;DHT22;9072;51.918;4.380;2023-08-12T02:10:41;21.00;99.90
17893;DHT22;9072;51.918;4.380;2023-08-12T02:13:27;20.90;99.90
17893;DHT22;9072;51.918;4.380;2023-08-12T02:16:03;20.90;99.90
17893;DHT22;9072;51.918;4.380;2023-08-12T02:18:55;21.00;99.90
17893;DHT22;9072;51.918;4.380;2023-08-12T02:21:31;20.90;99.90
17893;DHT22;9072;51.918;4.380;2023-08-12T02:24:10;20.90;99.90
17893;DHT22;9072;51.918;4.380;2023-08-12T02:26:38;20.90;99.90
17893;DHT22;9072;51.918;4.380;2023-08-12T02:29:09;20.90;99.90
17893;DHT22;9072;51.918;4.380;2023-08-12T02:31:42;20.90;99.90
17893;DHT22;9072;51.918;4.380;2023-08-12T02:34:21;20.90;99.90
17893;DHT22;9072;51.918;4.380;2023-08-12T02:36:52;20.90;99.90
17893;DHT22;9072;51.918;4.380;2023-08-12T02:39:23;20.90;99.90
17893;DHT22;9072;51.918;4.380;2023-08-12T02:41:52;20.90;99.90
17893;DHT22;9072;51.918;4.380;2023-08-12T02:44:25;20.90;99.90
17893;DHT22;9072;51.918;4.380;2023-08-12T02:46:57;20.90;99.90
17893;DHT22;9072;51.918;4.380;2023-08-12T02:49:30;20.90;99.90
17893;DHT22;9072;51.918;4.380;2023-08-12T02:52:07;20.90;99.90
17893;DHT22;9072;51.918;4.380;2023-08-12T02:54:35;20.90;99.90
17893;DHT22;9072;51.918;4.380;2023-08-12T02:57:07;20.90;99.90
17893;DHT22;9072;51.918;4.380;2023-08-12T02:59:42;20.90;99.90
17893;DHT22;9072;51.918;4.380;2023-08-12T03:02:19;20.90;99.90
17893;DHT22;9072;51.918;4.380;2023-08-12T03:04:53;20.90;99.90
17893;DHT22;9072;51.918;4.380;2023-08-12T03:07:28;20.90;99.90
17893;DHT22;9072;51.918;4.380;2023-08-12T03:09:59;20.90;99.90
17893;DHT22;9072;51.918;4.380;2023-08-12T03:12:29;20.90;99.90
17893;DHT22;9072;51.918;4.380;2023-08-12T03:15:10;20.90;99.90
17893;DHT22;9072;51.918;4.380;2023-08-12T03:17:38;20.90;99.90
17893;DHT22;9072;51.918;4.380;2023-08-12T03:20:08;20.80;99.90
17893;DHT22;9072;51.918;4.380;2023-08-12T03:22:43;20.90;99.90
17893;DHT22;9072;51.918;4.380;2023-08-12T03:25:14;20.80;99.90
17893;DHT22;9072;51.918;4.380;2023-08-12T03:27:42;20.80;99.90
17893;DHT22;9072;51.918;4.380;2023-08-12T03:30:14;20.80;99.90
17893;DHT22;9072;51.918;4.380;2023-08-12T03:33:03;20.80;99.90
17893;DHT22;9072;51.918;4.380;2023-08-12T03:35:44;20.80;99.90
17893;DHT22;9072;51.918;4.380;2023-08-12T03:38:15;20.80;99.90
17893;DHT22;9072;51.918;4.380;2023-08-12T03:40:52;20.80;99.90
17893;DHT22;9072;51.918;4.380;2023-08-12T03:43:19;20.80;99.90
17893;DHT22;9072;51.918;4.380;2023-08-12T03:45:52;20.80;99.90
17893;DHT22;9072;51.918;4.380;2023-08-12T03:48:30;20.80;99.90
17893;DHT22;9072;51.918;4.380;2023-08-12T03:51:04;20.80;99.90
17893;DHT22;9072;51.918;4.380;2023-08-12T03:53:37;20.80;99.90
17893;DHT22;9072;51.918;4.380;2023-08-12T03:56:24;20.80;99.90
17893;DHT22;9072;51.918;4.380;2023-08-12T03:58:52;20.80;99.90
17893;DHT22;9072;51.918;4.380;2023-08-12T04:01:26;20.80;99.90
17893;DHT22;9072;51.918;4.380;2023-08-12T04:04:00;20.80;99.90
17893;DHT22;9072;51.918;4.380;2023-08-12T04:06:37;20.80;99.90
17893;DHT22;9072;51.918;4.380;2023-08-12T04:09:34;20.80;99.90
17893;DHT22;9072;51.918;4.380;2023-08-12T04:12:24;20.80;99.90
17893;DHT22;9072;51.918;4.380;2023-08-12T04:15:04;20.80;99.90
17893;DHT22;9072;51.918;4.380;2023-08-12T04:17:36;20.80;99.90
17893;DHT22;9072;51.918;4.380;2023-08-12T04:20:11;20.80;99.90
17893;DHT22;9072;51.918;4.380;2023-08-12T04:22:52;20.80;99.90
17893;DHT22;9072;51.918;4.380;2023-08-12T04:25:25;20.80;99.90
17893;DHT22;9072;51.918;4.380;2023-08-12T04:28:06;20.80;99.90
17893;DHT22;9072;51.918;4.380;2023-08-12T04:30:46;20.80;99.90
17893;DHT22;9072;51.918;4.380;2023-08-12T04:33:21;20.80;99.90
17893;DHT22;9072;51.918;4.380;2023-08-12T04:35:57;20.80;99.90
17893;DHT22;9072;51.918;4.380;2023-08-12T04:38:28;20.70;99.90
17893;DHT22;9072;51.918;4.380;2023-08-12T04:41:10;20.70;99.90
17893;DHT22;9072;51.918;4.380;2023-08-12T04:43:47;20.70;99.90
17893;DHT22;9072;51.918;4.380;2023-08-12T04:46:16;20.70;99.90
17893;DHT22;9072;51.918;4.380;2023-08-12T04:48:47;20.70;99.90
17893;DHT22;9072;51.918;4.380;2023-08-12T04:51:34;20.70;99.90
17893;DHT22;9072;51.918;4.380;2023-08-12T04:54:04;20.70;99.90
17893;DHT22;9072;51.918;4.380;2023-08-12T04:56:39;20.70;99.90
17893;DHT22;9072;51.918;4.380;2023-08-12T04:59:06;20.70;99.90
17893;DHT22;9072;51.918;4.380;2023-08-12T05:01:44;20.70;99.90
17893;DHT22;9072;51.918;4.380;2023-08-12T05:04:12;20.70;99.90
17893;DHT22;9072;51.918;4.380;2023-08-12T05:06:40;20.70;99.90
17893;DHT22;9072;51.918;4.380;2023-08-12T05:09:07;20.70;99.90
17893;DHT22;9072;51.918;4.380;2023-08-12T05:11:39;20.70;99.90
17893;DHT22;9072;51.918;4.380;2023-08-12T05:14:10;20.70;99.90
17893;DHT22;9072;51.918;4.380;2023-08-12T05:16:39;20.70;99.90
17893;DHT22;9072;51.918;4.380;2023-08-12T05:19:08;20.70;99.90
17893;DHT22;9072;51.918;4.380;2023-08-12T05:21:38;20.60;99.90
17893;DHT22;9072;51.918;4.380;2023-08-12T05:24:06;20.60;99.90
17893;DHT22;9072;51.918;4.380;2023-08-12T05:26:34;20.60;99.90
17893;DHT22;9072;51.918;4.380;2023-08-12T05:29:05;20.60;99.90
17893;DHT22;9072;51.918;4.380;2023-08-12T05:31:32;20.60;99.90
17893;DHT22;9072;51.918;4.380;2023-08-12T05:33:59;20.60;99.90
17893;DHT22;9072;51.918;4.380;2023-08-12T05:36:26;20.60;99.90
17893;DHT22;9072;51.918;4.380;2023-08-12T05:38:54;20.60;99.90
17893;DHT22;9072;51.918;4.380;2023-08-12T05:41:22;20.60;99.90
17893;DHT22;9072;51.918;4.380;2023-08-12T05:43:51;20.60;99.90
17893;DHT22;9072;51.918;4.380;2023-08-12T05:46:30;20.60;99.90
17893;DHT22;9072;51.918;4.380;2023-08-12T05:48:57;20.60;99.90
17893;DHT22;9072;51.918;4.380;2023-08-12T05:51:29;20.60;99.90
17893;DHT22;9072;51.918;4.380;2023-08-12T05:53:59;20.60;99.90
17893;DHT22;9072;51.918;4.380;2023-08-12T05:56:26;20.60;99.90
17893;DHT22;9072;51.918;4.380;2023-08-12T05:58:55;20.60;99.90
17893;DHT22;9072;51.918;4.380;2023-08-12T06:01:32;20.60;99.90
17893;DHT22;9072;51.918;4.380;2023-08-12T06:04:04;20.50;99.90
17893;DHT22;9072;51.918;4.380;2023-08-12T06:06:35;20.50;99.90
17893;DHT22;9072;51.918;4.380;2023-08-12T06:09:20;20.50;99.90
17893;DHT22;9072;51.918;4.380;2023-08-12T06:11:54;20.50;99.90
17893;DHT22;9072;51.918;4.380;2023-08-12T06:15:14;20.50;99.90
17893;DHT22;9072;51.918;4.380;2023-08-12T06:17:27;20.50;99.90
17893;DHT22;9072;51.918;4.380;2023-08-12T06:20:00;20.50;99.90
17893;DHT22;9072;51.918;4.380;2023-08-12T06:22:48;20.50;99.90
17893;DHT22;9072;51.918;4.380;2023-08-12T06:25:45;20.50;99.90
17893;DHT22;9072;51.918;4.380;2023-08-12T06:28:50;20.50;99.90
17893;DHT22;9072;51.918;4.380;2023-08-12T06:31:55;20.50;99.90
17893;DHT22;9072;51.918;4.380;2023-08-12T06:34:50;20.50;99.90
17893;DHT22;9072;51.918;4.380;2023-08-12T06:38:05;20.50;99.90
17893;DHT22;9072;51.918;4.380;2023-08-12T06:40:48;20.50;99.90
17893;DHT22;9072;51.918;4.380;2023-08-12T06:44:53;20.50;99.90
17893;DHT22;9072;51.918;4.380;2023-08-12T06:46:55;20.50;99.90
17893;DHT22;9072;51.918;4.380;2023-08-12T06:49:41;20.50;99.90
17893;DHT22;9072;51.918;4.380;2023-08-12T06:52:12;20.50;99.90
17893;DHT22;9072;51.918;4.380;2023-08-12T06:54:41;20.50;99.90
17893;DHT22;9072;51.918;4.380;2023-08-12T06:57:27;20.50;99.90
17893;DHT22;9072;51.918;4.380;2023-08-12T07:00:20;20.50;99.90
17893;DHT22;9072;51.918;4.380;2023-08-12T07:02:48;20.50;99.90
17893;DHT22;9072;51.918;4.380;2023-08-12T07:05:18;20.50;99.90
17893;DHT22;9072;51.918;4.380;2023-08-12T07:07:51;20.50;99.90
17893;DHT22;9072;51.918;4.380;2023-08-12T07:10:22;20.50;99.90
17893;DHT22;9072;51.918;4.380;2023-08-12T07:12:58;20.40;99.90
17893;DHT22;9072;51.918;4.380;2023-08-12T07:15:32;20.40;99.90
17893;DHT22;9072;51.918;4.380;2023-08-12T07:18:26;20.40;99.90
17893;DHT22;9072;51.918;4.380;2023-08-12T07:20:59;20.40;99.90
17893;DHT22;9072;51.918;4.380;2023-08-12T07:27:22;20.30;99.90
17893;DHT22;9072;51.918;4.380;2023-08-12T07:33:32;20.30;99.90
17893;DHT22;9072;51.918;4.380;2023-08-12T07:42:16;20.20;99.90
17893;DHT22;9072;51.918;4.380;2023-08-12T07:45:21;20.20;99.90
17893;DHT22;9072;51.918;4.380;2023-08-12T07:48:01;20.20;99.90
17893;DHT22;9072;51.918;4.380;2023-08-12T07:51:01;20.10;99.90
17893;DHT22;9072;51.918;4.380;2023-08-12T07:54:19;20.10;99.90
17893;DHT22;9072;51.918;4.380;2023-08-12T07:57:12;20.10;99.90
17893;DHT22;9072;51.918;4.380;2023-08-12T08:00:02;20.10;99.90
17893;DHT22;9072;51.918;4.380;2023-08-12T08:02:45;20.10;99.90
17893;DHT22;9072;51.918;4.380;2023-08-12T08:05:35;20.10;99.90
17893;DHT22;9072;51.918;4.380;2023-08-12T08:08:33;20.00;99.90
17893;DHT22;9072;51.918;4.380;2023-08-12T08:11:30;20.00;99.90
17893;DHT22;9072;51.918;4.380;2023-08-12T08:14:29;20.00;99.90
17893;DHT22;9072;51.918;4.380;2023-08-12T08:17:16;20.00;99.90
17893;DHT22;9072;51.918;4.380;2023-08-12T08:20:17;20.00;99.90
17893;DHT22;9072;51.918;4.380;2023-08-12T08:23:04;20.10;99.90
17893;DHT22;9072;51.918;4.380;2023-08-12T08:26:02;20.10;99.90
17893;DHT22;9072;51.918;4.380;2023-08-12T08:28:53;20.10;99.90
17893;DHT22;9072;51.918;4.380;2023-08-12T08:31:39;20.20;99.90
17893;DHT22;9072;51.918;4.380;2023-08-12T08:34:44;20.30;99.90
17893;DHT22;9072;51.918;4.380;2023-08-12T08:37:34;20.50;99.90
17893;DHT22;9072;51.918;4.380;2023-08-12T08:47:09;21.00;99.90
17893;DHT22;9072;51.918;4.380;2023-08-12T08:53:46;21.20;99.90
17893;DHT22;9072;51.918;4.380;2023-08-12T08:57:01;21.30;99.90
17893;DHT22;9072;51.918;4.380;2023-08-12T10:25:13;22.90;99.90
17893;DHT22;9072;51.918;4.380;2023-08-12T10:28:14;22.90;99.90
17893;DHT22;9072;51.918;4.380;2023-08-12T10:34:52;23.00;99.90
17893;DHT22;9072;51.918;4.380;2023-08-12T10:46:58;23.20;99.90
17893;DHT22;9072;51.918;4.380;2023-08-12T10:48:34;23.30;99.90
17893;DHT22;9072;51.918;4.380;2023-08-12T10:55:23;23.50;99.90
17893;DHT22;9072;51.918;4.380;2023-08-12T11:02:19;23.70;99.90
17893;DHT22;9072;51.918;4.380;2023-08-12T11:05:11;23.70;99.90
17893;DHT22;9072;51.918;4.380;2023-08-12T11:08:29;23.80;99.90
17893;DHT22;9072;51.918;4.380;2023-08-12T11:15:02;23.90;99.90
17893;DHT22;9072;51.918;4.380;2023-08-12T11:17:56;23.90;99.90
17893;DHT22;9072;51.918;4.380;2023-08-12T11:37:15;24.20;99.90
17893;DHT22;9072;51.918;4.380;2023-08-12T11:39:51;24.20;99.90
17893;DHT22;9072;51.918;4.380;2023-08-12T11:49:11;24.30;99.90
17893;DHT22;9072;51.918;4.380;2023-08-12T11:58:56;24.40;99.90
17893;DHT22;9072;51.918;4.380;2023-08-12T12:01:38;24.40;99.90
17893;DHT22;9072;51.918;4.380;2023-08-12T12:07:59;24.50;99.90
17893;DHT22;9072;51.918;4.380;2023-08-12T12:10:57;24.60;99.90
17893;DHT22;9072;51.918;4.380;2023-08-12T12:13:48;24.60;99.90
17893;DHT22;9072;51.918;4.380;2023-08-12T12:20:12;24.70;99.90
17893;DHT22;9072;51.918;4.380;2023-08-12T12:27:11;24.70;99.90
17893;DHT22;9072;51.918;4.380;2023-08-12T12:30:25;24.70;99.90
17893;DHT22;9072;51.918;4.380;2023-08-12T12:40:11;24.70;99.90
17893;DHT22;9072;51.918;4.380;2023-08-12T13:24:05;25.10;99.90
17893;DHT22;9072;51.918;4.380;2023-08-12T13:26:48;25.10;99.90
17893;DHT22;9072;51.918;4.380;2023-08-12T13:29:48;25.10;99.90
17893;DHT22;9072;51.918;4.380;2023-08-12T13:32:51;25.10;99.90
17893;DHT22;9072;51.918;4.380;2023-08-12T13:38:42;25.20;99.90
17893;DHT22;9072;51.918;4.380;2023-08-12T13:41:47;25.20;99.90
17893;DHT22;9072;51.918;4.380;2023-08-12T13:44:39;25.20;99.90
17893;DHT22;9072;51.918;4.380;2023-08-12T13:50:47;25.20;99.90
17893;DHT22;9072;51.918;4.380;2023-08-12T14:00:25;25.20;99.90
17893;DHT22;9072;51.918;4.380;2023-08-12T14:03:32;25.20;99.90
17893;DHT22;9072;51.918;4.380;2023-08-12T14:06:06;25.20;99.90
17893;DHT22;9072;51.918;4.380;2023-08-12T14:09:09;25.20;99.90
17893;DHT22;9072;51.918;4.380;2023-08-12T14:15:21;25.20;99.90
17893;DHT22;9072;51.918;4.380;2023-08-12T14:18:20;25.20;99.90
17893;DHT22;9072;51.918;4.380;2023-08-12T14:21:14;25.20;99.90
17893;DHT22;9072;51.918;4.380;2023-08-12T14:24:18;25.20;99.90
17893;DHT22;9072;51.918;4.380;2023-08-12T14:32:46;25.10;99.90
17893;DHT22;9072;51.918;4.380;2023-08-12T14:37:08;25.20;99.90
17893;DHT22;9072;51.918;4.380;2023-08-12T14:40:02;25.20;99.90
17893;DHT22;9072;51.918;4.380;2023-08-12T14:42:39;25.10;99.90
17893;DHT22;9072;51.918;4.380;2023-08-12T14:46:00;25.20;99.90
17893;DHT22;9072;51.918;4.380;2023-08-12T14:49:32;25.20;99.90
17893;DHT22;9072;51.918;4.380;2023-08-12T14:52:00;25.20;99.90
17893;DHT22;9072;51.918;4.380;2023-08-12T14:55:11;25.20;99.90
17893;DHT22;9072;51.918;4.380;2023-08-12T14:57:57;25.10;99.90
17893;DHT22;9072;51.918;4.380;2023-08-12T15:01:04;25.20;99.90
17893;DHT22;9072;51.918;4.380;2023-08-12T15:04:07;25.20;99.90
17893;DHT22;9072;51.918;4.380;2023-08-12T15:10:27;25.20;99.90
17893;DHT22;9072;51.918;4.380;2023-08-12T15:13:12;25.20;99.90
17893;DHT22;9072;51.918;4.380;2023-08-12T15:15:46;25.20;99.90
17893;DHT22;9072;51.918;4.380;2023-08-12T15:18:19;25.20;99.90
17893;DHT22;9072;51.918;4.380;2023-08-12T15:20:49;25.20;99.90
17893;DHT22;9072;51.918;4.380;2023-08-12T15:23:26;25.30;99.90
17893;DHT22;9072;51.918;4.380;2023-08-12T15:26:08;25.30;99.90
17893;DHT22;9072;51.918;4.380;2023-08-12T15:28:44;25.30;99.90
17893;DHT22;9072;51.918;4.380;2023-08-12T15:31:23;25.30;99.90
17893;DHT22;9072;51.918;4.380;2023-08-12T15:34:12;25.30;99.90
17893;DHT22;9072;51.918;4.380;2023-08-12T15:36:45;25.40;99.90
17893;DHT22;9072;51.918;4.380;2023-08-12T15:40:05;25.40;99.90
17893;DHT22;9072;51.918;4.380;2023-08-12T15:42:23;25.40;99.90
17893;DHT22;9072;51.918;4.380;2023-08-12T15:45:10;25.50;99.90
17893;DHT22;9072;51.918;4.380;2023-08-12T15:47:50;25.50;99.90
17893;DHT22;9072;51.918;4.380;2023-08-12T15:50:25;25.50;99.90
17893;DHT22;9072;51.918;4.380;2023-08-12T15:52:54;25.50;99.90
17893;DHT22;9072;51.918;4.380;2023-08-12T15:55:43;25.50;99.90
17893;DHT22;9072;51.918;4.380;2023-08-12T15:58:17;25.60;99.90
17893;DHT22;9072;51.918;4.380;2023-08-12T16:01:00;25.60;99.90
17893;DHT22;9072;51.918;4.380;2023-08-12T16:03:38;25.60;99.90
17893;DHT22;9072;51.918;4.380;2023-08-12T16:06:20;25.50;99.90
17893;DHT22;9072;51.918;4.380;2023-08-12T16:08:58;25.60;99.90
17893;DHT22;9072;51.918;4.380;2023-08-12T16:11:40;25.60;99.90
17893;DHT22;9072;51.918;4.380;2023-08-12T16:14:12;25.50;99.90
17893;DHT22;9072;51.918;4.380;2023-08-12T16:16:40;25.60;99.90
17893;DHT22;9072;51.918;4.380;2023-08-12T16:19:07;25.40;99.90
17893;DHT22;9072;51.918;4.380;2023-08-12T16:21:34;25.20;99.90
17893;DHT22;9072;51.918;4.380;2023-08-12T16:24:01;25.00;99.90
17893;DHT22;9072;51.918;4.380;2023-08-12T16:26:28;24.70;99.90
17893;DHT22;9072;51.918;4.380;2023-08-12T16:28:55;24.60;99.90
17893;DHT22;9072;51.918;4.380;2023-08-12T16:31:24;24.40;99.90
17893;DHT22;9072;51.918;4.380;2023-08-12T16:33:51;24.20;99.90
17893;DHT22;9072;51.918;4.380;2023-08-12T16:36:18;24.00;99.90
17893;DHT22;9072;51.918;4.380;2023-08-12T16:38:45;23.90;99.90
17893;DHT22;9072;51.918;4.380;2023-08-12T16:41:12;23.80;99.90
17893;DHT22;9072;51.918;4.380;2023-08-12T16:43:45;23.70;99.90
17893;DHT22;9072;51.918;4.380;2023-08-12T16:46:12;23.70;99.90
17893;DHT22;9072;51.918;4.380;2023-08-12T16:48:40;23.60;99.90
17893;DHT22;9072;51.918;4.380;2023-08-12T16:51:07;23.60;99.90
17893;DHT22;9072;51.918;4.380;2023-08-12T16:53:36;23.60;99.90
17893;DHT22;9072;51.918;4.380;2023-08-12T16:56:12;23.50;99.90
17893;DHT22;9072;51.918;4.380;2023-08-12T16:58:39;23.50;99.90
17893;DHT22;9072;51.918;4.380;2023-08-12T17:01:07;23.40;99.90
17893;DHT22;9072;51.918;4.380;2023-08-12T17:03:36;23.40;99.90
17893;DHT22;9072;51.918;4.380;2023-08-12T17:06:06;23.30;99.90
17893;DHT22;9072;51.918;4.380;2023-08-12T17:08:33;23.20;99.90
17893;DHT22;9072;51.918;4.380;2023-08-12T17:11:05;23.10;99.90
17893;DHT22;9072;51.918;4.380;2023-08-12T17:13:35;23.00;99.90
17893;DHT22;9072;51.918;4.380;2023-08-12T17:16:02;22.90;99.90
17893;DHT22;9072;51.918;4.380;2023-08-12T17:18:30;22.80;99.90
17893;DHT22;9072;51.918;4.380;2023-08-12T17:21:02;22.70;99.90
17893;DHT22;9072;51.918;4.380;2023-08-12T17:23:36;22.60;99.90
17893;DHT22;9072;51.918;4.380;2023-08-12T17:26:03;22.60;99.90
17893;DHT22;9072;51.918;4.380;2023-08-12T17:28:32;22.60;99.90
17893;DHT22;9072;51.918;4.380;2023-08-12T17:31:06;22.60;99.90
17893;DHT22;9072;51.918;4.380;2023-08-12T17:33:34;22.50;99.90
17893;DHT22;9072;51.918;4.380;2023-08-12T17:36:03;22.40;99.90
17893;DHT22;9072;51.918;4.380;2023-08-12T17:38:30;22.30;99.90
17893;DHT22;9072;51.918;4.380;2023-08-12T17:40:59;22.10;99.90
17893;DHT22;9072;51.918;4.380;2023-08-12T17:43:29;22.00;99.90
17893;DHT22;9072;51.918;4.380;2023-08-12T17:45:58;21.90;99.90
17893;DHT22;9072;51.918;4.380;2023-08-12T17:48:26;21.80;99.90
17893;DHT22;9072;51.918;4.380;2023-08-12T17:50:57;21.70;99.90
17893;DHT22;9072;51.918;4.380;2023-08-12T17:53:25;21.60;99.90
17893;DHT22;9072;51.918;4.380;2023-08-12T17:55:54;21.60;99.90
17893;DHT22;9072;51.918;4.380;2023-08-12T17:58:22;21.50;99.90
17893;DHT22;9072;51.918;4.380;2023-08-12T18:00:49;21.50;99.90
17893;DHT22;9072;51.918;4.380;2023-08-12T18:03:16;21.40;99.90
17893;DHT22;9072;51.918;4.380;2023-08-12T18:05:43;21.30;99.90
17893;DHT22;9072;51.918;4.380;2023-08-12T18:08:10;21.30;99.90
17893;DHT22;9072;51.918;4.380;2023-08-12T18:10:37;21.30;99.90
17893;DHT22;9072;51.918;4.380;2023-08-12T18:13:08;21.30;99.90
17893;DHT22;9072;51.918;4.380;2023-08-12T18:15:49;21.20;99.90
17893;DHT22;9072;51.918;4.380;2023-08-12T18:18:46;21.20;99.90
17893;DHT22;9072;51.918;4.380;2023-08-12T18:21:42;21.10;99.90
17893;DHT22;9072;51.918;4.380;2023-08-12T18:24:21;21.00;99.90
17893;DHT22;9072;51.918;4.380;2023-08-12T18:27:43;21.00;99.90
17893;DHT22;9072;51.918;4.380;2023-08-12T18:30:11;20.90;99.90
17893;DHT22;9072;51.918;4.380;2023-08-12T18:32:54;20.80;99.90
17893;DHT22;9072;51.918;4.380;2023-08-12T18:35:33;20.70;99.90
17893;DHT22;9072;51.918;4.380;2023-08-12T18:38:08;20.60;99.90
17893;DHT22;9072;51.918;4.380;2023-08-12T18:40:42;20.60;99.90
17893;DHT22;9072;51.918;4.380;2023-08-12T18:43:11;20.50;99.90
17893;DHT22;9072;51.918;4.380;2023-08-12T18:45:40;20.40;99.90
17893;DHT22;9072;51.918;4.380;2023-08-12T18:48:11;20.40;99.90
17893;DHT22;9072;51.918;4.380;2023-08-12T18:50:41;20.30;99.90
17893;DHT22;9072;51.918;4.380;2023-08-12T18:53:08;20.20;99.90
17893;DHT22;9072;51.918;4.380;2023-08-12T18:55:38;20.20;99.90
17893;DHT22;9072;51.918;4.380;2023-08-12T18:58:10;20.10;99.90
17893;DHT22;9072;51.918;4.380;2023-08-12T19:00:40;20.10;99.90
17893;DHT22;9072;51.918;4.380;2023-08-12T19:03:12;20.00;99.90
17893;DHT22;9072;51.918;4.380;2023-08-12T19:05:42;19.90;99.90
17893;DHT22;9072;51.918;4.380;2023-08-12T19:08:12;19.90;99.90
17893;DHT22;9072;51.918;4.380;2023-08-12T19:10:40;19.80;99.90
17893;DHT22;9072;51.918;4.380;2023-08-12T19:13:16;19.80;99.90
17893;DHT22;9072;51.918;4.380;2023-08-12T19:15:55;19.70;99.90
17893;DHT22;9072;51.918;4.380;2023-08-12T19:18:44;19.60;99.90
17893;DHT22;9072;51.918;4.380;2023-08-12T19:21:34;19.50;99.90
17893;DHT22;9072;51.918;4.380;2023-08-12T19:24:37;19.50;99.90
17893;DHT22;9072;51.918;4.380;2023-08-12T19:27:09;19.40;99.90
17893;DHT22;9072;51.918;4.380;2023-08-12T19:29:39;19.40;99.90
17893;DHT22;9072;51.918;4.380;2023-08-12T19:32:09;19.30;99.90
17893;DHT22;9072;51.918;4.380;2023-08-12T19:40:17;19.10;99.90
17893;DHT22;9072;51.918;4.380;2023-08-12T19:42:45;19.10;99.90
17893;DHT22;9072;51.918;4.380;2023-08-12T19:45:13;19.00;99.90
17893;DHT22;9072;51.918;4.380;2023-08-12T19:47:42;19.00;99.90
17893;DHT22;9072;51.918;4.380;2023-08-12T19:50:11;19.00;99.90
17893;DHT22;9072;51.918;4.380;2023-08-12T19:52:43;19.00;99.90
17893;DHT22;9072;51.918;4.380;2023-08-12T19:55:10;19.00;99.90
17893;DHT22;9072;51.918;4.380;2023-08-12T19:57:38;18.90;99.90
17893;DHT22;9072;51.918;4.380;2023-08-12T20:00:08;18.80;99.90
17893;DHT22;9072;51.918;4.380;2023-08-12T20:02:36;18.80;99.90
17893;DHT22;9072;51.918;4.380;2023-08-12T20:05:10;18.80;99.90
17893;DHT22;9072;51.918;4.380;2023-08-12T20:07:38;18.80;99.90
17893;DHT22;9072;51.918;4.380;2023-08-12T20:10:08;18.80;99.90
17893;DHT22;9072;51.918;4.380;2023-08-12T20:12:38;18.90;99.90
17893;DHT22;9072;51.918;4.380;2023-08-12T20:15:06;18.90;99.90
17893;DHT22;9072;51.918;4.380;2023-08-12T20:17:34;18.80;99.90
17893;DHT22;9072;51.918;4.380;2023-08-12T20:20:03;18.80;99.90
17893;DHT22;9072;51.918;4.380;2023-08-12T20:22:36;18.80;99.90
17893;DHT22;9072;51.918;4.380;2023-08-12T20:25:07;18.70;99.90
17893;DHT22;9072;51.918;4.380;2023-08-12T20:27:35;18.70;99.90
17893;DHT22;9072;51.918;4.380;2023-08-12T20:30:03;18.70;99.90
17893;DHT22;9072;51.918;4.380;2023-08-12T20:32:30;18.70;99.90
17893;DHT22;9072;51.918;4.380;2023-08-12T20:35:00;18.70;99.90
17893;DHT22;9072;51.918;4.380;2023-08-12T20:37:29;18.70;99.90
17893;DHT22;9072;51.918;4.380;2023-08-12T20:39:56;18.60;99.90
17893;DHT22;9072;51.918;4.380;2023-08-12T20:42:25;18.60;99.90
17893;DHT22;9072;51.918;4.380;2023-08-12T20:44:52;18.60;99.90
17893;DHT22;9072;51.918;4.380;2023-08-12T20:47:19;18.60;99.90
17893;DHT22;9072;51.918;4.380;2023-08-12T20:49:46;18.60;99.90
17893;DHT22;9072;51.918;4.380;2023-08-12T20:52:14;18.60;99.90
17893;DHT22;9072;51.918;4.380;2023-08-12T20:54:41;18.50;99.90
17893;DHT22;9072;51.918;4.380;2023-08-12T20:57:08;18.50;99.90
17893;DHT22;9072;51.918;4.380;2023-08-12T20:59:36;18.50;99.90
17893;DHT22;9072;51.918;4.380;2023-08-12T21:02:04;18.50;99.90
17893;DHT22;9072;51.918;4.380;2023-08-12T21:04:33;18.40;99.90
17893;DHT22;9072;51.918;4.380;2023-08-12T21:07:00;18.40;99.90
17893;DHT22;9072;51.918;4.380;2023-08-12T21:09:28;18.40;99.90
17893;DHT22;9072;51.918;4.380;2023-08-12T21:11:58;18.40;99.90